WetterOnline ( https://www.wetteronline.de )

Wetter aktuell Pocking

Aktuelles Wetter: Fürstenzell (480m)

6-stündlich | Neueste Meldungen
Ortszeit Temperatur Wetter
So, 23.06. 20:00 20.8° C bedeckt
So, 23.06. 14:00 20.6° C wolkig
So, 23.06. 8:00 15.1° C bewölkt
So, 23.06. 2:00 15.6° C wolkig
Sa, 22.06. 20:00 21.5° C wolkig
Sa, 22.06. 14:00 20.4° C wolkenlos
Sa, 22.06. 8:00 15.3° C bewölkt
Sa, 22.06. 2:00 13.7° C leichter Regen
Ortszeit Temperatur Wetter
Mo, 24.06. 0:00 18.5° C wolkig
So, 23.06. 23:30 19.0° C bedeckt
So, 23.06. 23:20 19.0° C bedeckt
So, 23.06. 23:10 19.1° C bewölkt
So, 23.06. 23:00 18.8° C bewölkt
So, 23.06. 22:50 18.8° C bewölkt
So, 23.06. 22:30 18.9° C leicht bewölkt
So, 23.06. 22:00 19.4° C bedeckt
So, 23.06. 21:30 19.6° C wolkig
So, 23.06. 21:00 19.9° C fast wolkenlos
Ortszeit Relative Feuchte Sichtweite
So, 23.06. 20:00 69% 50 km
So, 23.06. 14:00 66% 50 km
So, 23.06. 8:00 87% 28 km
So, 23.06. 2:00 87% 45 km
Sa, 22.06. 20:00 51% 55 km
Sa, 22.06. 14:00 54% 40 km
Sa, 22.06. 8:00 90% 35 km
Sa, 22.06. 2:00 100% 2.4 km
Ortszeit Relative Feuchte Sichtweite
Mo, 24.06. 0:00 83% 55 km
So, 23.06. 23:30 81% 60 km
So, 23.06. 23:20 81% -
So, 23.06. 23:10 80% -
So, 23.06. 23:00 80% 45 km
So, 23.06. 22:50 80% -
So, 23.06. 22:30 78% 55 km
So, 23.06. 22:00 76% 45 km
So, 23.06. 21:30 75% 45 km
So, 23.06. 21:00 75% 50 km
Ortszeit Niederschlagsmenge Niederschlagsart
So, 23.06. 20:00 0.1 l/m2 in 12 Std. Regen
So, 23.06. 14:00 0.0 l/m2 in 6 Std. -
So, 23.06. 8:00 0.1 l/m2 in 12 Std. -
So, 23.06. 2:00 0.1 l/m2 in 6 Std. Regen
Sa, 22.06. 20:00 0.1 l/m2 in 12 Std. -
Sa, 22.06. 14:00 0.1 l/m2 in 6 Std. Niederschlag
Sa, 22.06. 8:00 12 l/m2 in 12 Std. Regen
Sa, 22.06. 2:00 10 l/m2 in 6 Std. Regen
Ortszeit Niederschlagsmenge Niederschlagsart
Mo, 24.06. 0:00 keine Meldung -
So, 23.06. 23:30 0.0 l/m2 in 30 Min -
So, 23.06. 23:20 keine Meldung -
So, 23.06. 23:10 keine Meldung -
So, 23.06. 23:00 0.0 l/m2 in 1 Std. -
So, 23.06. 22:50 keine Meldung -
So, 23.06. 22:30 0.0 l/m2 in 30 Min -
So, 23.06. 22:00 0.0 l/m2 in 1 Std. -
So, 23.06. 21:30 0.0 l/m2 in 30 Min -
So, 23.06. 21:00 0.0 l/m2 in 1 Std. -
Ortszeit Stärke Spitze Richtung
km/h Bft. km/h Grad Sektor
So, 23.06. 20:00 7 2 20 320° NW
So, 23.06. 14:00 6 1 17 160° S
So, 23.06. 8:00 6 1 28 230° SW
So, 23.06. 2:00 14 3 29 260° W
Sa, 22.06. 20:00 7 2 29 250° W
Sa, 22.06. 14:00 13 3 33 270° W
Sa, 22.06. 8:00 15 3 44 240° SW
Sa, 22.06. 2:00 25 4 54 40° NO
Ortszeit Stärke Spitze Richtung
km/h Bft. km/h Grad Sektor
Mo, 24.06. 0:00 11 2 17 20° N
So, 23.06. 23:30 9 2 15 350° N
So, 23.06. 23:20 9 2 - 350° N
So, 23.06. 23:10 11 2 - 360° N
So, 23.06. 23:00 11 2 14 340° N
So, 23.06. 22:50 11 2 - 340° N
So, 23.06. 22:30 11 2 14 340° N
So, 23.06. 22:00 7 2 14 320° NW
So, 23.06. 21:30 11 2 14 310° NW
So, 23.06. 21:00 9 2 15 310° NW
Ortszeit Untergrenze Bedeckung Gattung
total tief tief mittel hoch
So, 23.06. 20:00 2700 m 8/8 8/8 - - -
So, 23.06. 14:00 780 m 6/8 6/8 - - -
So, 23.06. 8:00 360 m 7/8 7/8 - - -
So, 23.06. 2:00 450 m 7/8 2/8 - - -
Sa, 22.06. 20:00 3000 m 8/8 8/8 - - -
Sa, 22.06. 14:00 - 0/8 0/8 - - -
Sa, 22.06. 8:00 300 m 7/8 7/8 - - -
Sa, 22.06. 2:00 <30 m 7/8 0/8 - - -
Ortszeit Bedeckungsgrad in Achtel und Wolkenuntergrenze
Mo, 24.06. 0:00 5(1410m) 6(2100m) 6(2400m)
So, 23.06. 23:30 8(2100m) 8(2700m)
So, 23.06. 23:20 8(2100m) 8(2700m)
So, 23.06. 23:10 7
So, 23.06. 23:00 7(2100m) 7(2700m)
So, 23.06. 22:50 7(2100m) 7(2700m)
So, 23.06. 22:30 1(2100m)
So, 23.06. 22:00 8(3000m) 8(3600m)
So, 23.06. 21:30 3(2100m) 6(3000m) 6(3600m)
So, 23.06. 21:00 1(2100m)
Ortszeit Luftdruck NN (hPa) Tendenz (hPa in 3 Std.)
So, 23.06. 20:00 1017 + 0,1
So, 23.06. 14:00 1017 - 0,1
So, 23.06. 8:00 1018 + 1,3
So, 23.06. 2:00 1016 + 1,0
Sa, 22.06. 20:00 1012 - 0,6
Sa, 22.06. 14:00 1015 - 0,5
Sa, 22.06. 8:00 1016 + 0,2
Sa, 22.06. 2:00 1014 + 0,1
Ortszeit Luftdruck NN (hPa) Tendenz (hPa in 3 Std.)
Mo, 24.06. 0:00 1018 + 0,8
So, 23.06. 23:30 1018 + 0,8
So, 23.06. 23:20 1018 keine Meldung
So, 23.06. 23:10 1018 keine Meldung
So, 23.06. 23:00 1018 + 0,8
So, 23.06. 22:50 1018 keine Meldung
So, 23.06. 22:30 1018 + 0,7
So, 23.06. 22:00 1017 + 0,7
So, 23.06. 21:30 1017 + 0,8
So, 23.06. 21:00 1017 + 0,5
Ortszeit Schneehöhe (cm)
So, 23.06. 20:00 0
So, 23.06. 14:00 0
So, 23.06. 8:00 0
So, 23.06. 2:00 0
Sa, 22.06. 20:00 0
Sa, 22.06. 14:00 0
Sa, 22.06. 8:00 0
Sa, 22.06. 2:00 0
Ortszeit Schneehöhe (cm)
Mo, 24.06. 0:00 -
So, 23.06. 23:30 0
So, 23.06. 23:20 0
So, 23.06. 23:10 -
So, 23.06. 23:00 0
So, 23.06. 22:50 0
So, 23.06. 22:30 0
So, 23.06. 22:00 0
So, 23.06. 21:30 0
So, 23.06. 21:00 0
Link zu dieser Seite / Seite empfehlen

Das Wetter in ...